Time;durP1;ratioP1;P1;durP2;ratioP2;P2;SDS_P1;SDS_P2;PMS_P1;PMS_P2;Temp;Humidity;BMP_temperature;BMP_pressure;BME280_temperature;BME280_humidity;BME280_pressure;Samples;Min_cycle;Max_cycle;Signal;HPM_P1;HPM_P2
2021/12/20 00:08:43;;;;;;;6.60;2.33;;;12.50;62.80;;;;;;20795695;28;20025;-77
2021/12/20 00:18:44;;;;;;;8.10;1.80;;;12.40;62.70;;;;;;20828168;28;20124;-77
2021/12/20 00:28:44;;;;;;;7.93;2.00;;;12.40;62.60;;;;;;20794724;28;20494;-77
2021/12/20 00:49:03;;;;;;;4.05;1.27;;;12.40;62.50;;;;;;20811491;28;20438;-78
2021/12/20 00:59:04;;;;;;;3.97;1.63;;;12.40;62.40;;;;;;20824467;28;20048;-79
2021/12/20 01:09:05;;;;;;;4.80;1.77;;;12.40;62.30;;;;;;20791085;28;20033;-78
2021/12/20 01:19:05;;;;;;;4.05;1.35;;;12.40;62.20;;;;;;20824423;28;20036;-78
2021/12/20 01:29:06;;;;;;;4.18;1.45;;;12.40;62.10;;;;;;20806918;28;20048;-80
2021/12/20 01:39:08;;;;;;;5.32;1.85;;;12.40;62.10;;;;;;20792463;28;20045;-79
2021/12/20 01:49:12;;;;;;;8.30;2.05;;;12.40;62.00;;;;;;20805434;28;20103;-79
2021/12/20 01:59:12;;;;;;;5.40;1.75;;;12.30;61.80;;;;;;20822306;28;20033;-78
2021/12/20 02:09:19;;;;;;;5.03;1.60;;;12.30;61.70;;;;;;20806288;28;20511;-77
2021/12/20 02:19:20;;;;;;;3.70;1.58;;;12.30;61.60;;;;;;20821131;28;20036;-78
2021/12/20 02:29:27;;;;;;;3.20;1.27;;;12.30;61.60;;;;;;20805393;28;20068;-77
2021/12/20 02:39:28;;;;;;;7.35;1.55;;;12.30;61.50;;;;;;20805691;28;20041;-78
2021/12/20 02:49:29;;;;;;;3.65;1.45;;;12.30;61.40;;;;;;20799825;28;20241;-77
2021/12/20 02:59:30;;;;;;;5.43;1.90;;;12.30;61.30;;;;;;20801099;28;20454;-78
2021/12/20 03:09:37;;;;;;;5.70;1.60;;;12.30;61.20;;;;;;20800908;28;20040;-77
2021/12/20 03:19:38;;;;;;;3.63;1.10;;;12.30;61.10;;;;;;20815989;28;20045;-77
2021/12/20 03:29:39;;;;;;;4.20;1.33;;;12.30;61.00;;;;;;20831874;28;20026;-77
2021/12/20 03:39:40;;;;;;;2.58;1.05;;;12.30;61.00;;;;;;20830798;28;20116;-78
2021/12/20 03:49:41;;;;;;;4.43;1.98;;;12.20;60.90;;;;;;20813302;28;20042;-78
2021/12/20 03:59:42;;;;;;;3.88;1.10;;;12.20;60.70;;;;;;20796294;28;20048;-77
2021/12/20 04:09:42;;;;;;;6.20;1.50;;;12.20;60.70;;;;;;20812532;28;20033;-78
2021/12/20 04:19:43;;;;;;;6.28;1.60;;;12.20;60.50;;;;;;20811213;28;20291;-78
2021/12/20 04:29:44;;;;;;;3.60;1.60;;;12.20;60.50;;;;;;20794394;28;20099;-78
2021/12/20 04:39:44;;;;;;;8.07;1.40;;;12.20;60.30;;;;;;20826792;28;20807;-77
2021/12/20 04:49:45;;;;;;;3.63;1.30;;;12.20;60.20;;;;;;20825833;28;20033;-78
2021/12/20 04:59:45;;;;;;;4.07;1.17;;;12.20;60.00;;;;;;20808073;28;20045;-77
2021/12/20 05:09:46;;;;;;;2.63;0.82;;;12.10;59.80;;;;;;20807313;28;20052;-79
2021/12/20 05:19:46;;;;;;;3.90;1.23;;;12.50;59.40;;;;;;20790639;28;20120;-78
2021/12/20 05:29:50;;;;;;;4.72;1.50;;;13.10;57.60;;;;;;20789868;28;20033;-81
2021/12/20 05:39:50;;;;;;;4.18;1.17;;;13.90;55.60;;;;;;20802584;28;20030;-76
2021/12/20 05:49:51;;;;;;;5.60;1.48;;;14.70;54.40;;;;;;20787936;28;20063;-76
2021/12/20 05:59:51;;;;;;;3.47;1.40;;;15.10;52.20;;;;;;20804080;28;20034;-80
2021/12/20 06:09:52;;;;;;;5.07;1.27;;;15.30;51.40;;;;;;20790856;28;20060;-75
2021/12/20 06:19:53;;;;;;;3.13;0.85;;;15.30;50.90;;;;;;20855175;28;20033;-75
2021/12/20 06:29:53;;;;;;;3.28;1.13;;;14.90;51.40;;;;;;20837805;28;20083;-76
2021/12/20 06:39:54;;;;;;;3.63;1.00;;;14.20;52.40;;;;;;20840130;28;20041;-75
2021/12/20 06:49:54;;;;;;;4.75;1.60;;;13.70;53.50;;;;;;20862153;28;20360;-78
2021/12/20 06:59:57;;;;;;;3.53;1.45;;;13.30;54.60;;;;;;20900525;28;20064;-78
2021/12/20 07:09:57;;;;;;;3.72;1.45;;;12.90;55.40;;;;;;20869224;28;20642;-78
2021/12/20 07:19:59;;;;;;;5.60;1.60;;;12.60;56.00;;;;;;20817602;28;20041;-78
2021/12/20 07:29:59;;;;;;;8.05;1.50;;;12.50;56.50;;;;;;20815467;28;20302;-78
2021/12/20 07:40:00;;;;;;;3.13;1.10;;;12.30;56.90;;;;;;20822452;28;20540;-79
2021/12/20 07:50:01;;;;;;;2.78;1.27;;;12.30;57.10;;;;;;20865232;28;20041;-79
2021/12/20 08:00:04;;;;;;;4.97;1.80;;;12.20;57.20;;;;;;20898659;28;20029;-79
2021/12/20 08:10:13;;;;;;;5.80;1.38;;;12.20;57.30;;;;;;20844463;28;20048;-79
2021/12/20 08:20:13;;;;;;;3.50;1.40;;;12.20;57.40;;;;;;20817036;28;20042;-77
2021/12/20 08:30:15;;;;;;;4.10;1.50;;;12.20;57.40;;;;;;20815151;28;20034;-76
2021/12/20 08:40:17;;;;;;;1.77;0.80;;;12.10;57.40;;;;;;20887599;28;20039;-78
2021/12/20 08:50:21;;;;;;;3.53;1.38;;;12.10;57.50;;;;;;20826638;28;20033;-78
2021/12/20 09:00:24;;;;;;;5.55;1.38;;;12.10;57.50;;;;;;20829348;28;20049;-75
2021/12/20 09:10:24;;;;;;;4.60;1.30;;;12.10;57.60;;;;;;20899537;28;20064;-78
2021/12/20 09:20:26;;;;;;;2.67;1.25;;;12.00;57.60;;;;;;20851374;28;20483;-77
2021/12/20 09:30:29;;;;;;;2.75;1.27;;;12.00;57.60;;;;;;20864549;28;20033;-76
2021/12/20 09:40:36;;;;;;;4.00;1.02;;;12.00;57.70;;;;;;20905153;28;20043;-76
2021/12/20 09:50:37;;;;;;;3.05;1.10;;;11.90;57.80;;;;;;20824015;28;20037;-74
2021/12/20 10:00:38;;;;;;;4.78;1.35;;;11.90;57.90;;;;;;20899840;28;20067;-76
2021/12/20 10:10:48;;;;;;;4.53;1.30;;;11.90;57.70;;;;;;20823609;28;20383;-75
2021/12/20 10:20:53;;;;;;;5.30;1.65;;;11.90;57.70;;;;;;20898874;28;20032;-74
2021/12/20 10:31:14;;;;;;;4.10;1.23;;;11.90;57.70;;;;;;20868890;28;20446;-74
2021/12/20 10:41:32;;;;;;;4.45;1.30;;;11.90;57.60;;;;;;20838552;28;20053;-74
2021/12/20 10:51:48;;;;;;;3.40;1.45;;;11.90;57.60;;;;;;20847479;28;20039;-75
2021/12/20 11:11:52;;;;;;;3.97;1.20;;;11.90;57.50;;;;;;20836669;28;20072;-76
2021/12/20 11:22:24;;;;;;;3.60;1.27;;;12.50;56.70;;;;;;21259518;22;20303;-77
2021/12/20 11:32:25;;;;;;;5.10;1.70;;;13.40;54.50;;;;;;20815765;28;20059;-75
2021/12/20 11:42:25;;;;;;;2.35;1.08;;;13.60;53.50;;;;;;20836826;28;20068;-74
2021/12/20 11:52:33;;;;;;;2.67;1.25;;;13.00;54.10;;;;;;20833118;28;20033;-75
2021/12/20 12:02:40;;;;;;;3.60;1.25;;;12.50;55.80;;;;;;20799678;28;20045;-75
2021/12/20 12:12:44;;;;;;;2.63;1.27;;;12.10;56.10;;;;;;20811905;28;20033;-71
2021/12/20 12:22:46;;;;;;;3.03;1.00;;;11.90;56.60;;;;;;20793969;28;20049;-71
2021/12/20 12:32:50;;;;;;;3.15;1.17;;;11.80;56.80;;;;;;20825296;28;20432;-72
2021/12/20 12:42:55;;;;;;;6.18;1.40;;;11.90;57.10;;;;;;20844810;28;20579;-75
2021/12/20 12:52:55;;;;;;;5.85;1.38;;;11.70;57.20;;;;;;20798902;28;20029;-72
2021/12/20 13:03:10;;;;;;;3.38;1.20;;;11.80;57.30;;;;;;20827639;28;20040;-72
2021/12/20 13:13:31;;;;;;;4.57;1.08;;;11.80;57.20;;;;;;20812076;28;20717;-72
2021/12/20 13:23:47;;;;;;;1.35;0.80;;;11.90;57.10;;;;;;20731910;28;20463;-79
2021/12/20 13:33:48;;;;;;;1.60;1.02;;;11.90;57.00;;;;;;20795904;28;20060;-73
2021/12/20 13:43:57;;;;;;;2.78;0.90;;;11.90;57.00;;;;;;20825956;28;20098;-73
2021/12/20 13:53:57;;;;;;;3.05;0.90;;;11.90;56.90;;;;;;20825536;28;20040;-74
2021/12/20 14:03:58;;;;;;;1.60;0.77;;;11.90;57.00;;;;;;20808881;28;20435;-73
2021/12/20 14:14:11;;;;;;;4.85;1.27;;;11.90;57.00;;;;;;20825014;28;20065;-73
2021/12/20 14:24:11;;;;;;;3.75;0.82;;;12.10;56.70;;;;;;20806093;28;20045;-74
2021/12/20 14:34:34;;;;;;;2.80;0.95;;;12.40;56.30;;;;;;20821890;28;20037;-73
2021/12/20 14:44:44;;;;;;;2.78;1.15;;;12.50;55.60;;;;;;20822144;28;20033;-73
2021/12/20 14:54:46;;;;;;;3.70;1.38;;;12.70;55.20;;;;;;20822601;28;20048;-73
2021/12/20 15:04:48;;;;;;;2.60;0.90;;;12.90;54.80;;;;;;20836621;28;20046;-73
2021/12/20 15:14:48;;;;;;;3.30;1.20;;;12.80;54.80;;;;;;20819780;28;20079;-72
2021/12/20 15:24:49;;;;;;;6.47;1.53;;;12.60;55.10;;;;;;20820555;28;20046;-75
2021/12/20 15:34:49;;;;;;;3.38;1.40;;;12.30;55.60;;;;;;20820904;28;20287;-73
2021/12/20 15:44:50;;;;;;;1.90;0.90;;;12.20;56.00;;;;;;20836044;28;20068;-70
2021/12/20 15:54:50;;;;;;;4.05;1.10;;;12.70;55.30;;;;;;20815782;28;20037;-71
2021/12/20 16:04:51;;;;;;;4.05;1.50;;;13.50;53.40;;;;;;20833981;28;20044;-73
2021/12/20 16:14:52;;;;;;;5.18;1.30;;;14.50;51.10;;;;;;20816141;28;20076;-71
2021/12/20 16:24:53;;;;;;;2.58;1.55;;;15.30;49.30;;;;;;20826667;28;20037;-71
2021/12/20 16:34:54;;;;;;;3.30;1.25;;;15.60;48.20;;;;;;20836144;28;20471;-72
2021/12/20 16:44:56;;;;;;;3.58;1.13;;;15.70;47.70;;;;;;20804774;28;20044;-73
2021/12/20 16:54:58;;;;;;;2.28;0.93;;;15.70;47.50;;;;;;20811294;28;20067;-71
2021/12/20 17:05:07;;;;;;;2.47;1.10;;;15.10;48.20;;;;;;20794412;28;20043;-73
2021/12/20 17:15:09;;;;;;;4.43;1.25;;;14.40;49.40;;;;;;20795166;28;20045;-73
2021/12/20 17:25:09;;;;;;;3.42;2.25;;;13.80;50.60;;;;;;20796693;28;20041;-73
2021/12/20 17:35:10;;;;;;;4.10;1.88;;;13.30;51.70;;;;;;20828026;28;20029;-75
2021/12/20 17:45:15;;;;;;;2.67;1.65;;;12.90;52.60;;;;;;20794094;28;20079;-74
2021/12/20 17:55:16;;;;;;;3.13;1.70;;;12.60;53.40;;;;;;20826126;28;20095;-81
2021/12/20 18:05:20;;;;;;;6.35;2.20;;;12.40;53.90;;;;;;20845228;28;20038;-80
2021/12/20 18:15:21;;;;;;;5.13;2.40;;;12.30;54.30;;;;;;20836541;28;20044;-78
2021/12/20 18:25:22;;;;;;;5.28;2.40;;;12.20;54.60;;;;;;20844031;28;20050;-80
2021/12/20 18:35:23;;;;;;;4.75;2.30;;;12.20;54.70;;;;;;20843309;28;20543;-78
2021/12/20 18:45:23;;;;;;;3.53;1.92;;;12.20;54.80;;;;;;20858280;28;20299;-79
2021/12/20 18:55:25;;;;;;;2.70;1.75;;;12.20;54.80;;;;;;20841830;28;20045;-79
2021/12/20 19:05:26;;;;;;;4.72;2.30;;;12.20;54.80;;;;;;20808740;28;20430;-77
2021/12/20 19:15:27;;;;;;;3.92;1.75;;;12.20;54.80;;;;;;20824696;28;20040;-78
2021/12/20 19:25:29;;;;;;;5.15;1.63;;;12.20;54.80;;;;;;20802559;28;20042;-80
2021/12/20 19:35:30;;;;;;;5.20;2.17;;;12.20;54.60;;;;;;20856071;28;20029;-78
2021/12/20 19:45:33;;;;;;;3.55;1.83;;;12.20;55.20;;;;;;20864889;28;20048;-79
2021/12/20 19:55:36;;;;;;;6.22;2.03;;;12.20;54.50;;;;;;20834171;28;20045;-79
2021/12/20 20:05:37;;;;;;;2.53;1.48;;;12.20;54.50;;;;;;20819002;28;20037;-78
2021/12/20 20:15:38;;;;;;;5.90;1.77;;;12.20;54.40;;;;;;20832965;28;20072;-79
2021/12/20 20:25:38;;;;;;;3.38;1.77;;;12.20;54.30;;;;;;20801077;28;20034;-80
2021/12/20 20:35:39;;;;;;;2.88;1.90;;;12.10;54.20;;;;;;20815662;28;20033;-78
2021/12/20 20:45:41;;;;;;;3.08;1.50;;;12.10;54.20;;;;;;20816376;28;20037;-81
2021/12/20 20:55:45;;;;;;;2.38;1.20;;;12.20;54.20;;;;;;20830431;28;20495;-83
2021/12/20 21:05:46;;;;;;;2.10;1.17;;;12.10;54.10;;;;;;20817722;28;20037;-83
2021/12/20 21:15:46;;;;;;;4.15;1.55;;;12.10;54.10;;;;;;20816621;28;20586;-84
2021/12/20 21:25:47;;;;;;;3.40;1.65;;;12.10;54.00;;;;;;20818319;28;20459;-83
2021/12/20 21:35:48;;;;;;;3.97;1.65;;;12.10;54.00;;;;;;20834674;28;20115;-83
2021/12/20 21:45:49;;;;;;;2.60;1.20;;;12.10;53.90;;;;;;20834335;28;20041;-82
2021/12/20 21:55:50;;;;;;;3.85;1.92;;;12.10;53.90;;;;;;20833535;28;20503;-85
2021/12/20 22:05:52;;;;;;;5.38;2.90;;;12.10;53.80;;;;;;20816666;28;20063;-83
2021/12/20 22:15:53;;;;;;;3.30;1.60;;;12.00;53.70;;;;;;20801522;28;20061;-83
2021/12/20 22:25:53;;;;;;;3.72;1.80;;;12.00;53.70;;;;;;20817880;28;20037;-82
2021/12/20 22:35:54;;;;;;;2.85;1.73;;;12.00;53.60;;;;;;20816011;28;20460;-82
2021/12/20 22:45:58;;;;;;;3.42;1.88;;;12.00;53.60;;;;;;20833992;28;20037;-84
2021/12/20 22:55:59;;;;;;;2.00;1.23;;;12.00;53.60;;;;;;20835067;28;20045;-84
2021/12/20 23:06:00;;;;;;;3.92;1.52;;;12.00;53.50;;;;;;20847018;28;20079;-83
2021/12/20 23:16:02;;;;;;;3.63;1.75;;;11.90;53.40;;;;;;20847814;28;20041;-83
2021/12/20 23:26:03;;;;;;;3.65;2.00;;;12.00;53.40;;;;;;20830852;28;20059;-83
2021/12/20 23:36:05;;;;;;;2.85;1.77;;;11.90;53.40;;;;;;20830450;28;20072;-83
2021/12/20 23:46:06;;;;;;;5.53;2.05;;;11.90;53.30;;;;;;20813920;28;20136;-83
2021/12/20 23:56:11;;;;;;;3.42;2.25;;;11.90;53.30;;;;;;20846429;28;20091;-83
